Time;durP1;ratioP1;P1;durP2;ratioP2;P2;SDS_P1;SDS_P2;PMS_P1;PMS_P2;Temp;Humidity;BMP_temperature;BMP_pressure;BME280_temperature;BME280_humidity;BME280_pressure;Samples;Min_cycle;Max_cycle;Signal;HPM_P1;HPM_P2
2022/03/02 00:01:44;;;;;;;;;13.50;13.50;;;;;20.11;34.65;101940.97;5058858;28;51011;-54
2022/03/02 00:04:09;;;;;;;;;15.50;13.75;;;;;20.11;34.61;101937.34;5061429;28;51471;-46
2022/03/02 00:06:35;;;;;;;;;14.25;11.50;;;;;20.10;34.49;101932.91;5060309;28;51030;-47
2022/03/02 00:09:00;;;;;;;;;15.25;15.25;;;;;20.07;34.60;101931.38;5060170;27;51800;-51
2022/03/02 00:11:27;;;;;;;;;17.50;14.75;;;;;20.06;34.83;101932.44;5061781;28;50983;-49
2022/03/02 00:13:54;;;;;;;;;15.50;15.50;;;;;20.07;34.83;101927.78;5070260;28;51204;-47
2022/03/02 00:16:19;;;;;;;;;17.00;15.25;;;;;20.05;34.58;101922.50;5070611;27;50926;-46
2022/03/02 00:18:45;;;;;;;;;19.25;15.00;;;;;20.04;34.73;101917.19;5060163;28;51085;-48
2022/03/02 00:21:11;;;;;;;;;15.25;12.25;;;;;20.02;34.51;101911.03;5062203;28;51167;-48
2022/03/02 00:23:36;;;;;;;;;10.50;10.50;;;;;20.00;34.29;101908.44;5066839;28;51173;-48
2022/03/02 00:26:02;;;;;;;;;17.25;15.00;;;;;20.00;34.55;101905.69;5059545;28;51122;-46
2022/03/02 00:28:28;;;;;;;;;13.25;13.25;;;;;19.99;34.60;101904.00;5062028;27;51054;-52
2022/03/02 00:30:53;;;;;;;;;13.50;13.50;;;;;19.98;34.63;101904.19;5063297;27;51172;-52
2022/03/02 00:33:19;;;;;;;;;16.00;14.25;;;;;19.96;34.24;101909.88;5064311;28;51216;-52
2022/03/02 00:35:45;;;;;;;;;8.75;7.25;;;;;19.97;34.48;101902.50;5065298;28;51084;-51
2022/03/02 00:38:10;;;;;;;;;18.00;16.25;;;;;19.97;34.39;101905.25;5068328;28;51158;-51
2022/03/02 00:40:38;;;;;;;;;17.00;15.50;;;;;19.97;34.53;101902.50;5056922;28;51143;-47
2022/03/02 00:43:03;;;;;;;;;18.25;15.50;;;;;19.95;34.28;101901.84;5060252;28;51151;-52
2022/03/02 00:45:29;;;;;;;;;14.00;13.50;;;;;19.95;34.42;101897.19;5060561;28;51067;-50
2022/03/02 00:47:55;;;;;;;;;14.00;13.75;;;;;19.94;34.43;101901.00;5066831;28;51858;-53
2022/03/02 00:50:20;;;;;;;;;17.00;13.50;;;;;19.92;34.41;101903.09;5063685;28;51064;-52
2022/03/02 00:52:46;;;;;;;;;15.00;12.75;;;;;19.91;34.36;101897.78;5062047;28;51089;-52
2022/03/02 00:55:12;;;;;;;;;6.00;4.25;;;;;19.90;34.52;101894.16;5063379;28;51413;-48
2022/03/02 00:57:38;;;;;;;;;15.50;14.75;;;;;19.89;34.54;101889.69;5064818;28;51103;-51
2022/03/02 01:00:05;;;;;;;;;16.75;15.00;;;;;19.88;34.44;101899.84;5059382;28;51113;-53
2022/03/02 01:02:30;;;;;;;;;15.25;14.50;;;;;19.86;34.53;101893.69;5060148;28;50997;-49
2022/03/02 01:04:56;;;;;;;;;16.75;14.00;;;;;19.86;34.61;101895.59;5064783;28;51002;-46
2022/03/02 01:07:21;;;;;;;;;15.50;14.75;;;;;19.85;34.55;101893.88;5071887;27;51743;-51
2022/03/02 01:09:46;;;;;;;;;19.00;15.50;;;;;19.85;34.31;101893.88;5060238;27;51008;-51
2022/03/02 01:12:12;;;;;;;;;16.50;14.00;;;;;19.83;34.57;101893.25;5060811;28;51232;-47
2022/03/02 01:14:37;;;;;;;;;16.25;13.50;;;;;19.83;34.36;101890.50;5063635;28;51192;-51
2022/03/02 01:17:03;;;;;;;;;17.75;14.50;;;;;19.83;34.46;101887.75;5062106;28;51140;-52
2022/03/02 01:19:29;;;;;;;;;14.25;14.25;;;;;19.80;34.57;101883.50;5058902;28;51112;-50
2022/03/02 01:21:54;;;;;;;;;15.25;15.25;;;;;19.80;34.24;101888.09;5059935;28;51250;-52
2022/03/02 01:24:20;;;;;;;;;19.25;14.25;;;;;19.79;34.34;101883.66;5061078;28;51346;-51
2022/03/02 01:26:46;;;;;;;;;15.00;15.00;;;;;19.78;34.12;101884.69;5067957;28;52088;-52
2022/03/02 01:29:12;;;;;;;;;16.50;15.25;;;;;19.78;34.22;101884.69;5077598;27;51375;-47
2022/03/02 01:31:38;;;;;;;;;15.25;13.75;;;;;19.76;34.14;101881.28;5064260;28;51234;-51
2022/03/02 01:34:04;;;;;;;;;16.00;12.75;;;;;19.76;34.25;101878.53;5060617;28;51327;-48
2022/03/02 01:36:30;;;;;;;;;18.00;14.25;;;;;19.75;34.19;101874.09;5059523;28;51145;-51
2022/03/02 01:38:55;;;;;;;;;14.75;14.00;;;;;19.75;34.62;101876.84;5058635;28;50990;-52
2022/03/02 01:41:23;;;;;;;;;17.75;16.00;;;;;19.74;34.74;101872.41;5064553;28;51230;-46
2022/03/02 01:43:50;;;;;;;;;17.00;14.75;;;;;19.73;34.24;101871.53;5068401;28;51059;-46
2022/03/02 01:46:17;;;;;;;;;14.75;11.50;;;;;19.73;34.29;101859.69;5057608;28;51286;-48
2022/03/02 01:48:43;;;;;;;;;17.50;13.25;;;;;19.72;34.27;101858.00;5070545;28;51215;-47
2022/03/02 01:51:08;;;;;;;;;18.25;15.25;;;;;19.71;34.49;101859.03;5069472;28;50997;-47
2022/03/02 01:53:35;;;;;;;;;19.25;16.00;;;;;19.70;34.33;101860.09;5075680;28;51474;-46
2022/03/02 01:56:01;;;;;;;;;17.75;15.25;;;;;19.70;34.38;101860.94;5067565;28;51368;-47
2022/03/02 01:58:29;;;;;;;;;13.00;13.00;;;;;19.68;34.26;101854.75;5057048;28;51451;-47
2022/03/02 02:00:56;;;;;;;;;14.25;14.25;;;;;19.68;34.30;101848.41;5057057;28;51430;-53
2022/03/02 02:03:21;;;;;;;;;16.75;16.25;;;;;19.67;34.33;101850.31;5061930;28;51433;-49
2022/03/02 02:05:47;;;;;;;;;19.25;14.75;;;;;19.67;34.25;101855.81;5068567;28;51986;-46
2022/03/02 02:08:12;;;;;;;;;14.75;13.50;;;;;19.64;34.11;101847.97;5063037;28;51420;-47
2022/03/02 02:10:38;;;;;;;;;13.50;12.50;;;;;19.64;34.56;101847.97;5064222;28;51300;-47
2022/03/02 02:13:04;;;;;;;;;14.75;13.00;;;;;19.65;34.48;101846.06;5076678;28;51216;-50
2022/03/02 02:15:30;;;;;;;;;16.25;14.50;;;;;19.63;34.48;101838.00;5086942;27;53608;-51
2022/03/02 02:17:56;;;;;;;;;14.75;13.25;;;;;19.62;34.35;101838.22;5071195;28;51127;-48
2022/03/02 02:20:23;;;;;;;;;20.75;15.75;;;;;19.62;34.49;101829.97;5063338;28;51162;-46
2022/03/02 02:22:49;;;;;;;;;19.75;14.50;;;;;19.62;34.25;101829.97;5068212;28;51012;-52
2022/03/02 02:25:15;;;;;;;;;17.25;16.25;;;;;19.61;34.59;101829.09;5073840;28;52316;-47
2022/03/02 02:27:44;;;;;;;;;16.00;13.75;;;;;19.59;34.23;101818.31;5064322;27;51161;-46
2022/03/02 02:30:10;;;;;;;;;15.75;14.75;;;;;19.60;34.33;101820.00;5058699;27;51115;-47
2022/03/02 02:32:37;;;;;;;;;14.00;14.00;;;;;19.58;34.38;101819.31;5056762;28;51131;-49
2022/03/02 02:35:03;;;;;;;;;16.25;14.50;;;;;19.58;34.50;101815.72;5069758;28;51086;-51
2022/03/02 02:37:28;;;;;;;;;17.75;17.75;;;;;19.57;34.54;101809.38;5073006;28;51066;-48
2022/03/02 02:39:58;;;;;;;;;18.75;15.75;;;;;19.57;34.29;101808.53;5076077;28;51525;-52
2022/03/02 02:42:24;;;;;;;;;16.75;16.00;;;;;19.56;34.59;101806.84;5071237;27;51353;-50
2022/03/02 02:44:50;;;;;;;;;22.25;16.50;;;;;19.55;34.53;101799.59;5055999;28;51032;-49
2022/03/02 02:47:15;;;;;;;;;16.00;15.00;;;;;19.55;34.56;101802.34;5058594;28;51001;-51
2022/03/02 02:49:41;;;;;;;;;16.50;13.50;;;;;19.55;34.31;101797.75;5057437;28;51106;-47
2022/03/02 02:52:06;;;;;;;;;17.25;14.50;;;;;19.54;34.26;101798.75;5057051;28;51109;-50
2022/03/02 02:54:32;;;;;;;;;18.00;17.00;;;;;19.54;34.31;101779.53;5060091;28;52561;-52
2022/03/02 02:56:57;;;;;;;;;16.75;15.25;;;;;19.54;34.65;101785.00;5057263;28;51111;-53
2022/03/02 02:59:24;;;;;;;;;15.25;13.25;;;;;19.53;34.54;101772.31;5069526;28;51208;-51
2022/03/02 03:01:50;;;;;;;;;16.00;14.50;;;;;19.53;34.30;101768.72;5068654;27;51202;-51
2022/03/02 03:04:15;;;;;;;;;16.50;15.75;;;;;19.52;34.48;101767.88;5075549;28;51783;-49
2022/03/02 03:06:40;;;;;;;;;15.25;14.25;;;;;19.52;34.35;101767.88;5064250;28;51088;-50
2022/03/02 03:09:06;;;;;;;;;18.25;15.00;;;;;19.52;34.31;101764.28;5059222;28;51157;-51
2022/03/02 03:11:32;;;;;;;;;20.50;18.00;;;;;19.51;34.45;101768.06;5062978;28;51339;-50
2022/03/02 03:13:58;;;;;;;;;16.50;16.50;;;;;19.51;34.42;101763.44;5058757;28;51982;-49
2022/03/02 03:16:23;;;;;;;;;20.50;14.25;;;;;19.49;34.46;101760.03;5060906;28;51242;-49
2022/03/02 03:18:48;;;;;;;;;18.25;15.50;;;;;19.49;34.13;101761.94;5059249;28;51053;-47
2022/03/02 03:21:14;;;;;;;;;19.50;15.50;;;;;19.48;34.61;101763.78;5075609;28;50985;-50
2022/03/02 03:23:39;;;;;;;;;14.50;14.25;;;;;19.47;34.40;101756.59;5067690;28;51987;-53
2022/03/02 03:26:05;;;;;;;;;13.75;12.75;;;;;19.46;34.16;101757.63;5055492;28;51069;-51
2022/03/02 03:28:30;;;;;;;;;17.50;14.25;;;;;19.47;34.45;101759.34;5070115;27;51453;-48
2022/03/02 03:30:56;;;;;;;;;15.75;14.75;;;;;19.47;34.37;101753.84;5058533;27;51323;-51
2022/03/02 03:33:21;;;;;;;;;15.75;13.25;;;;;19.47;34.25;101761.25;5059098;28;51259;-52
2022/03/02 03:35:46;;;;;;;;;25.75;16.75;;;;;19.46;34.38;101762.28;5054883;28;51079;-52
2022/03/02 03:38:12;;;;;;;;;17.25;14.75;;;;;19.46;34.60;101760.38;5061232;28;51166;-52
2022/03/02 03:40:37;;;;;;;;;15.25;13.50;;;;;19.45;34.58;101755.94;5055576;28;51366;-48
2022/03/02 03:43:03;;;;;;;;;16.75;15.00;;;;;19.45;34.34;101763.34;5082646;27;51161;-48
2022/03/02 03:45:28;;;;;;;;;20.00;15.50;;;;;19.45;34.48;101758.69;5071163;28;51083;-50
2022/03/02 03:47:54;;;;;;;;;15.50;14.75;;;;;19.44;34.45;101748.75;5059810;28;50980;-49
2022/03/02 03:50:20;;;;;;;;;20.00;16.25;;;;;19.44;34.46;101745.16;5071152;28;51226;-51
2022/03/02 03:52:46;;;;;;;;;13.50;13.25;;;;;19.43;34.29;101737.94;5074893;28;52911;-51
2022/03/02 03:55:13;;;;;;;;;15.25;14.50;;;;;19.43;34.35;101743.44;5055568;28;51462;-49
2022/03/02 03:57:39;;;;;;;;;17.75;17.25;;;;;19.42;34.51;101737.09;5056996;28;51206;-49
2022/03/02 04:00:09;;;;;;;;;17.75;16.00;;;;;19.42;34.46;101731.59;5055395;28;51221;-52
2022/03/02 04:02:34;;;;;;;;;19.00;16.75;;;;;19.41;34.29;101735.41;5054822;28;51187;-46
2022/03/02 04:05:00;;;;;;;;;18.75;16.00;;;;;19.40;34.40;101736.44;5055361;28;51014;-52
2022/03/02 04:07:25;;;;;;;;;16.25;14.25;;;;;19.41;34.21;101738.16;5069999;28;51028;-48
2022/03/02 04:09:50;;;;;;;;;16.25;15.25;;;;;19.40;34.56;101735.59;5064465;28;51287;-51
2022/03/02 04:12:17;;;;;;;;;17.75;16.00;;;;;19.39;34.53;101739.41;5064094;28;52092;-51
2022/03/02 04:14:42;;;;;;;;;18.25;16.25;;;;;19.39;34.56;101739.41;5071518;28;51304;-47
2022/03/02 04:17:08;;;;;;;;;18.00;15.75;;;;;19.39;34.47;101733.91;5068110;28;51081;-48
2022/03/02 04:19:33;;;;;;;;;19.25;15.75;;;;;19.38;34.29;101743.16;5067178;28;51321;-47
2022/03/02 04:21:58;;;;;;;;;16.50;14.00;;;;;19.39;34.31;101740.25;5054639;28;51096;-48
2022/03/02 04:24:24;;;;;;;;;13.75;13.50;;;;;19.38;34.54;101744.00;5062970;28;51152;-48
2022/03/02 04:26:49;;;;;;;;;17.25;15.25;;;;;19.37;34.24;101735.97;5070995;28;51120;-51
2022/03/02 04:29:14;;;;;;;;;15.25;12.00;;;;;19.37;34.56;101727.72;5070413;27;51053;-48
2022/03/02 04:31:39;;;;;;;;;17.00;14.50;;;;;19.35;34.18;101730.66;5065924;28;52172;-47
2022/03/02 04:34:05;;;;;;;;;16.50;15.00;;;;;19.35;34.39;101725.19;5073028;28;50919;-46
2022/03/02 04:36:30;;;;;;;;;13.00;12.75;;;;;19.34;34.54;101720.72;5073913;28;51041;-51
2022/03/02 04:38:56;;;;;;;;;15.75;14.00;;;;;19.35;34.11;101714.19;5063384;27;51284;-49
2022/03/02 04:41:21;;;;;;;;;11.75;11.00;;;;;19.32;34.08;101720.94;5057641;27;50980;-49
2022/03/02 04:43:46;;;;;;;;;16.50;14.75;;;;;19.34;34.42;101712.50;5054550;28;51018;-46
2022/03/02 04:46:12;;;;;;;;;15.00;11.75;;;;;19.33;34.29;101710.78;5054821;28;51257;-47
2022/03/02 04:48:37;;;;;;;;;12.00;12.00;;;;;19.32;34.58;101703.59;5063713;28;50891;-48
2022/03/02 04:51:02;;;;;;;;;16.50;15.00;;;;;19.31;34.48;101705.50;5059475;28;51181;-47
2022/03/02 04:53:28;;;;;;;;;13.50;13.50;;;;;19.32;34.29;101703.59;5068287;28;51093;-47
2022/03/02 04:55:54;;;;;;;;;14.50;14.00;;;;;19.31;34.42;101699.16;5058179;28;51174;-47
2022/03/02 04:58:19;;;;;;;;;17.50;17.00;;;;;19.30;34.51;101705.69;5066156;28;51207;-46
2022/03/02 05:00:45;;;;;;;;;15.75;15.00;;;;;19.30;34.37;101703.78;5059037;28;51960;-48
2022/03/02 05:03:10;;;;;;;;;16.00;14.50;;;;;19.30;34.28;101712.03;5057806;28;51197;-46
2022/03/02 05:05:38;;;;;;;;;14.50;13.50;;;;;19.28;34.35;101700.41;5066301;28;51058;-49
2022/03/02 05:08:06;;;;;;;;;18.75;16.00;;;;;19.28;34.23;101702.28;5062686;27;51048;-47
2022/03/02 05:10:31;;;;;;;;;19.50;16.25;;;;;19.28;34.36;101703.13;5057940;28;51066;-51
2022/03/02 05:12:58;;;;;;;;;15.50;14.75;;;;;19.27;34.54;101697.81;5068612;28;51106;-46
2022/03/02 05:15:24;;;;;;;;;13.50;13.50;;;;;19.26;34.50;101696.97;5075587;28;51095;-51
2022/03/02 05:17:50;;;;;;;;;14.50;13.25;;;;;19.26;34.23;101693.38;5074449;28;51084;-51
2022/03/02 05:20:18;;;;;;;;;12.75;12.50;;;;;19.26;34.21;101699.72;5062664;28;51977;-52
2022/03/02 05:22:44;;;;;;;;;17.75;16.00;;;;;19.26;34.53;101699.72;5057438;28;51376;-50
2022/03/02 05:25:12;;;;;;;;;17.25;16.25;;;;;19.25;34.38;101697.16;5066968;28;50954;-47
2022/03/02 05:27:38;;;;;;;;;7.00;2.00;;;;;19.25;33.86;101698.00;5075953;28;51440;-48
2022/03/02 05:30:04;;;;;;;;;22.00;22.00;;;;;19.25;33.41;101702.66;5061116;27;51741;-50
2022/03/02 05:32:29;;;;;;;;;33.50;28.25;;;;;19.22;33.11;101692.91;5073354;28;51602;-48
2022/03/02 05:34:55;;;;;;;;;35.00;31.75;;;;;19.22;32.63;101692.91;5075212;28;51063;-48
2022/03/02 05:37:20;;;;;;;;;33.75;32.00;;;;;19.20;32.41;101692.25;5077397;28;51012;-47
2022/03/02 05:39:46;;;;;;;;;33.00;30.75;;;;;19.18;32.39;101685.28;5073355;28;51953;-47
2022/03/02 05:42:12;;;;;;;;;39.50;31.50;;;;;19.15;32.00;101682.88;5076800;28;51059;-46
2022/03/02 05:44:37;;;;;;;;;45.50;35.75;;;;;19.13;32.06;101687.72;5070778;28;51068;-48
2022/03/02 05:47:03;;;;;;;;;38.25;29.75;;;;;19.10;31.39;101682.63;5062911;28;51203;-50
2022/03/02 05:49:29;;;;;;;;;35.50;32.25;;;;;19.06;31.40;101678.56;5059987;28;51972;-52
2022/03/02 05:51:54;;;;;;;;;37.75;28.00;;;;;19.06;31.42;101673.06;5070416;28;51169;-47
2022/03/02 05:54:19;;;;;;;;;27.75;27.00;;;;;19.08;31.43;101673.75;5059278;28;51270;-46
2022/03/02 05:56:45;;;;;;;;;32.75;31.75;;;;;19.14;31.58;101673.78;5077127;27;50885;-51
2022/03/02 05:59:13;;;;;;;;;28.00;26.25;;;;;19.24;31.16;101676.22;5064313;28;52736;-48
2022/03/02 06:01:39;;;;;;;;;28.00;24.00;;;;;19.34;31.38;101676.78;5059696;28;51539;-46
2022/03/02 06:04:05;;;;;;;;;24.25;22.25;;;;;19.42;31.22;101675.81;5070352;27;51128;-49
2022/03/02 06:06:35;;;;;;;;;25.75;22.50;;;;;19.52;31.38;101673.59;5068429;28;51156;-50
2022/03/02 06:09:03;;;;;;;;;21.25;19.50;;;;;19.61;31.60;101677.94;5058028;27;52339;-48
2022/03/02 06:11:29;;;;;;;;;13.25;12.00;;;;;19.71;31.58;101677.63;5065390;28;51360;-50
2022/03/02 06:13:55;;;;;;;;;24.00;18.50;;;;;19.78;31.62;101675.75;5070874;28;51058;-50
2022/03/02 06:16:20;;;;;;;;;16.75;15.00;;;;;19.88;31.86;101674.38;5061617;28;51253;-52
2022/03/02 06:18:46;;;;;;;;;17.75;15.00;;;;;19.96;31.68;101675.28;5064161;28;52158;-50
2022/03/02 06:21:17;;;;;;;;;16.50;14.00;;;;;20.03;31.95;101677.06;5067698;28;51560;-50
2022/03/02 06:23:43;;;;;;;;;20.25;15.75;;;;;20.10;31.84;101668.81;5065168;28;51135;-50
2022/03/02 06:26:09;;;;;;;;;15.25;13.50;;;;;20.18;31.95;101671.44;5067657;28;51484;-50
2022/03/02 06:28:34;;;;;;;;;17.75;15.00;;;;;20.24;31.82;101675.31;5060294;27;51484;-47
2022/03/02 06:31:00;;;;;;;;;16.25;14.50;;;;;20.27;31.65;101669.38;5067310;28;51246;-47
2022/03/02 06:33:25;;;;;;;;;16.25;15.25;;;;;20.28;31.77;101666.44;5072966;28;51218;-50
2022/03/02 06:35:51;;;;;;;;;18.00;17.25;;;;;20.31;32.58;101673.44;5067814;28;51491;-48
2022/03/02 06:38:17;;;;;;;;;13.50;12.75;;;;;20.32;31.88;101669.63;5067271;27;52021;-49
2022/03/02 06:40:59;;;;;;;;;17.25;13.50;;;;;20.33;31.93;101668.59;5066705;27;51826;-50
2022/03/02 06:43:26;;;;;;;;;16.00;13.75;;;;;20.33;32.41;101672.19;5068213;28;51157;-49
2022/03/02 06:45:59;;;;;;;;;15.75;12.50;;;;;20.34;32.13;101682.16;5056624;28;51525;-46
2022/03/02 06:48:41;;;;;;;;;12.50;12.50;;;;;20.37;32.13;101678.97;5072053;28;51826;-47
2022/03/02 06:51:08;;;;;;;;;12.75;11.50;;;;;20.42;32.22;101682.00;5071985;28;51071;-47
2022/03/02 06:53:36;;;;;;;;;16.00;14.25;;;;;20.49;32.04;101679.31;5072111;28;51122;-50
2022/03/02 06:56:05;;;;;;;;;15.25;12.00;;;;;20.54;32.21;101682.31;5067891;28;51396;-45
2022/03/02 06:58:40;;;;;;;;;14.00;13.25;;;;;20.56;31.90;101680.19;5081731;27;52814;-45
2022/03/02 07:01:09;;;;;;;;;12.50;11.25;;;;;20.57;32.45;101686.56;5085015;27;51116;-49
2022/03/02 07:03:48;;;;;;;;;14.50;14.50;;;;;20.56;32.45;101685.72;5073545;27;51075;-47
2022/03/02 07:06:14;;;;;;;;;13.25;12.25;;;;;20.56;32.27;101685.72;5074713;28;51379;-49
2022/03/02 07:08:44;;;;;;;;;13.00;12.25;;;;;20.57;32.37;101681.06;5075997;27;51157;-47
2022/03/02 07:11:09;;;;;;;;;12.25;11.75;;;;;20.58;32.30;101688.25;5072382;27;51386;-48
2022/03/02 07:13:35;;;;;;;;;12.00;12.00;;;;;20.59;32.47;101687.19;5056025;27;51445;-49
2022/03/02 07:16:02;;;;;;;;;16.00;13.50;;;;;20.60;32.33;101692.50;5063299;28;51092;-51
2022/03/02 07:18:28;;;;;;;;;14.75;13.00;;;;;20.63;32.87;101689.31;5070198;28;50994;-50
2022/03/02 07:20:56;;;;;;;;;11.75;10.75;;;;;20.66;32.49;101690.84;5067669;28;51164;-50
2022/03/02 07:23:28;;;;;;;;;12.25;11.00;;;;;20.67;32.70;101690.63;5069306;28;51151;-46
2022/03/02 07:25:59;;;;;;;;;11.25;9.75;;;;;20.68;32.73;101689.59;5064925;27;51183;-46
2022/03/02 07:28:26;;;;;;;;;15.75;14.75;;;;;20.68;32.87;101695.09;5076272;27;51135;-46
2022/03/02 07:30:53;;;;;;;;;14.25;12.50;;;;;20.70;32.48;101692.13;5075812;28;51209;-47
2022/03/02 07:33:21;;;;;;;;;12.75;12.50;;;;;20.71;32.42;101694.66;5078165;27;51156;-48
2022/03/02 07:35:54;;;;;;;;;10.25;10.25;;;;;20.75;32.90;101701.50;5072823;28;51056;-48
2022/03/02 07:38:21;;;;;;;;;18.25;13.00;;;;;20.77;33.03;101697.69;5074659;27;51017;-51
2022/03/02 07:40:46;;;;;;;;;12.50;11.50;;;;;20.73;33.52;101703.56;5075209;27;51102;-50
2022/03/02 07:43:12;;;;;;;;;15.00;11.25;;;;;20.71;33.61;101699.34;5072378;27;51314;-53
2022/03/02 07:45:37;;;;;;;;;18.75;13.75;;;;;20.70;33.30;101701.22;5073034;27;51189;-51
2022/03/02 07:48:03;;;;;;;;;20.25;18.75;;;;;20.73;33.80;101691.72;5073884;27;51099;-51
2022/03/02 07:50:28;;;;;;;;;16.00;14.50;;;;;20.78;33.87;101688.38;5073878;27;51009;-51
2022/03/02 07:52:55;;;;;;;;;14.25;13.50;;;;;20.79;33.81;101692.81;5059935;27;51110;-47
2022/03/02 07:55:20;;;;;;;;;24.50;19.75;;;;;20.75;34.32;101682.22;5067702;28;51237;-51
2022/03/02 07:57:55;;;;;;;;;17.25;15.25;;;;;20.71;34.26;101677.31;5069486;28;51598;-53
2022/03/02 08:00:21;;;;;;;;;18.25;17.00;;;;;20.65;34.56;101683.66;5075437;27;51418;-51
2022/03/02 08:02:48;;;;;;;;;18.75;18.75;;;;;20.58;34.70;101686.34;5075500;27;51187;-55
2022/03/02 08:05:13;;;;;;;;;18.50;17.00;;;;;20.53;34.79;101682.50;5075516;28;51122;-50
2022/03/02 08:07:39;;;;;;;;;19.25;15.00;;;;;20.46;35.16;101685.22;5074196;27;51056;-53
2022/03/02 08:10:06;;;;;;;;;21.50;18.25;;;;;20.39;35.34;101684.28;5075242;28;50924;-52
2022/03/02 08:12:32;;;;;;;;;18.25;16.25;;;;;20.33;35.50;101682.34;5061589;28;51186;-52
2022/03/02 08:14:57;;;;;;;;;17.00;16.00;;;;;20.29;35.72;101686.53;5055144;28;51102;-51
2022/03/02 08:17:23;;;;;;;;;16.50;14.25;;;;;20.23;35.83;101684.59;5054826;28;51826;-49
2022/03/02 08:19:49;;;;;;;;;18.75;16.25;;;;;20.17;35.78;101691.75;5074491;28;51004;-49
2022/03/02 08:22:18;;;;;;;;;20.00;18.50;;;;;20.12;36.33;101683.25;5075346;28;51119;-51
2022/03/02 08:25:11;;;;;;;;;18.75;15.50;;;;;20.07;36.07;101677.50;5078994;27;51131;-52
2022/03/02 08:27:41;;;;;;;;;17.00;15.50;;;;;20.03;36.46;101679.81;5076615;28;51275;-51
2022/03/02 08:30:08;;;;;;;;;17.25;16.00;;;;;20.00;36.27;101680.19;5092771;27;50940;-52
2022/03/02 08:32:40;;;;;;;;;15.25;15.25;;;;;19.97;36.49;101675.09;5099200;27;50965;-51
2022/03/02 08:35:06;;;;;;;;;16.00;13.00;;;;;19.93;36.47;101679.28;5098891;27;50972;-53
2022/03/02 08:37:32;;;;;;;;;16.75;16.00;;;;;19.91;36.78;101675.91;5064383;27;51789;-50
2022/03/02 08:39:59;;;;;;;;;17.00;15.50;;;;;19.89;36.90;101686.22;5059209;28;51145;-51
2022/03/02 08:42:25;;;;;;;;;16.25;14.25;;;;;19.85;37.08;101683.03;5059312;28;51172;-52
2022/03/02 08:44:50;;;;;;;;;20.25;14.00;;;;;19.82;36.82;101688.06;5057977;28;51053;-51
2022/03/02 08:47:15;;;;;;;;;18.50;14.50;;;;;19.79;37.28;101688.44;5057629;28;51099;-52
2022/03/02 08:49:41;;;;;;;;;20.25;16.50;;;;;19.77;37.32;101693.31;5063184;28;51089;-49
2022/03/02 08:52:08;;;;;;;;;17.25;15.75;;;;;19.76;37.36;101683.34;5078075;28;51149;-50
2022/03/02 08:54:44;;;;;;;;;18.75;16.25;;;;;19.73;37.39;101687.34;5062384;27;51373;-52
2022/03/02 08:57:10;;;;;;;;;15.25;14.50;;;;;19.72;37.36;101687.56;5076255;28;52819;-49
2022/03/02 08:59:39;;;;;;;;;17.75;14.75;;;;;19.71;37.12;101683.13;5074590;28;51097;-46
2022/03/02 09:02:07;;;;;;;;;15.50;14.50;;;;;19.69;37.38;101688.78;5078223;28;51051;-52
2022/03/02 09:04:35;;;;;;;;;13.25;11.75;;;;;19.69;37.61;101682.44;5073619;28;51172;-50
2022/03/02 09:07:03;;;;;;;;;18.50;17.50;;;;;19.66;37.66;101678.19;5069113;28;51945;-51
2022/03/02 09:09:29;;;;;;;;;17.50;15.00;;;;;19.64;37.40;101671.19;5063350;28;51276;-49
2022/03/02 09:11:56;;;;;;;;;16.00;12.75;;;;;19.63;37.46;101666.75;5065563;28;51891;-50
2022/03/02 09:14:23;;;;;;;;;16.00;13.00;;;;;19.60;37.30;101660.59;5072723;28;51242;-50
2022/03/02 09:16:49;;;;;;;;;15.50;13.75;;;;;19.62;37.80;101670.53;5066650;28;51191;-49
2022/03/02 09:19:15;;;;;;;;;14.75;14.50;;;;;19.60;37.62;101666.09;5066426;28;51048;-48
2022/03/02 09:21:42;;;;;;;;;17.25;15.00;;;;;19.58;37.85;101668.16;5066046;28;51152;-48
2022/03/02 09:24:09;;;;;;;;;16.25;12.50;;;;;19.57;37.78;101669.22;5067713;28;51184;-49
2022/03/02 09:26:36;;;;;;;;;17.25;15.25;;;;;19.57;37.80;101663.72;5065934;28;51196;-48
2022/03/02 09:29:05;;;;;;;;;12.50;10.50;;;;;19.56;37.85;101661.19;5065612;27;51507;-48
2022/03/02 09:31:33;;;;;;;;;19.75;16.00;;;;;19.55;37.82;101660.31;5077271;28;51125;-46
2022/03/02 09:34:03;;;;;;;;;20.00;16.50;;;;;19.54;37.99;101655.00;5075807;28;51095;-50
2022/03/02 09:36:33;;;;;;;;;14.00;12.25;;;;;19.53;37.99;101656.91;5063401;28;51888;-49
2022/03/02 09:38:59;;;;;;;;;15.75;13.50;;;;;19.52;37.82;101660.69;5061218;28;50945;-51
2022/03/02 09:41:42;;;;;;;;;15.25;12.25;;;;;19.52;38.26;101663.44;5057471;28;51189;-47
2022/03/02 09:44:11;;;;;;;;;15.50;14.25;;;;;19.50;38.05;101659.19;5065384;28;51299;-50
2022/03/02 09:46:38;;;;;;;;;12.75;12.75;;;;;19.49;37.99;101660.25;5075099;28;53018;-51
2022/03/02 09:49:08;;;;;;;;;14.50;11.25;;;;;19.48;38.26;101658.50;5072617;28;51063;-52
2022/03/02 09:51:35;;;;;;;;;15.25;14.00;;;;;19.47;38.10;101660.41;5076823;28;51101;-51
2022/03/02 09:54:02;;;;;;;;;16.50;15.25;;;;;19.45;38.19;101659.78;5061730;28;51053;-52
2022/03/02 09:56:31;;;;;;;;;23.50;17.25;;;;;19.44;38.54;101652.56;5057465;27;51993;-49
2022/03/02 09:58:58;;;;;;;;;16.75;14.00;;;;;19.43;38.23;101650.88;5067873;28;51452;-55
2022/03/02 10:01:24;;;;;;;;;11.50;11.50;;;;;19.42;38.36;101651.94;5066792;28;51152;-52
2022/03/02 10:03:52;;;;;;;;;18.75;14.00;;;;;19.40;38.49;101655.94;5076233;28;51338;-53
2022/03/02 10:06:19;;;;;;;;;13.25;12.50;;;;;19.40;38.36;101655.94;5076399;28;52047;-50
2022/03/02 10:08:47;;;;;;;;;16.50;13.00;;;;;19.38;38.45;101660.75;5074967;28;51554;-47
2022/03/02 10:11:18;;;;;;;;;14.00;12.25;;;;;19.37;38.79;101651.66;5076968;28;51060;-52
2022/03/02 10:13:44;;;;;;;;;16.50;15.50;;;;;19.37;38.55;101659.03;5064879;28;51156;-51
2022/03/02 10:16:21;;;;;;;;;16.00;13.00;;;;;19.35;38.14;101648.25;5056619;28;51095;-52
2022/03/02 10:18:56;;;;;;;;;13.25;13.25;;;;;19.35;38.48;101652.91;5056698;27;51052;-51
2022/03/02 10:21:31;;;;;;;;;17.75;16.00;;;;;19.33;38.43;101642.97;5056631;27;51016;-50
2022/03/02 10:23:59;;;;;;;;;16.00;15.50;;;;;19.33;38.59;101644.84;5057467;28;51015;-51
2022/03/02 10:26:27;;;;;;;;;12.50;12.50;;;;;19.34;38.47;101652.03;5068230;28;51655;-51
2022/03/02 10:29:12;;;;;;;;;12.50;12.00;;;;;19.32;38.47;101640.41;5076155;27;51213;-52
2022/03/02 10:31:44;;;;;;;;;16.75;14.25;;;;;19.32;38.47;101638.50;5076757;28;51284;-51
2022/03/02 10:34:16;;;;;;;;;19.00;17.25;;;;;19.32;38.97;101637.66;5074995;28;51662;-52
2022/03/02 10:36:45;;;;;;;;;16.00;15.50;;;;;19.31;38.42;101628.56;5076175;28;52101;-51
2022/03/02 10:39:38;;;;;;;;;17.75;15.75;;;;;19.32;38.64;101632.16;5074076;27;51209;-52
2022/03/02 10:42:05;;;;;;;;;16.25;15.50;;;;;19.30;38.40;101632.38;5055992;28;51072;-52
2022/03/02 10:45:01;;;;;;;;;17.75;15.00;;;;;19.30;38.58;101623.28;5071213;27;51279;-52
2022/03/02 10:47:29;;;;;;;;;16.00;14.75;;;;;19.30;38.77;101629.63;5055813;28;51910;-52
2022/03/02 10:49:56;;;;;;;;;19.50;14.00;;;;;19.28;38.65;101609.75;5056273;28;51025;-52
2022/03/02 10:52:25;;;;;;;;;16.25;14.25;;;;;19.29;38.43;101616.09;5067992;28;51141;-50
2022/03/02 10:54:54;;;;;;;;;13.75;13.75;;;;;19.28;38.50;101612.50;5074294;28;50993;-48
2022/03/02 10:57:24;;;;;;;;;10.25;9.00;;;;;19.28;38.46;101612.50;5076261;28;51973;-51
2022/03/02 10:59:53;;;;;;;;;13.25;13.25;;;;;19.28;38.65;101615.22;5076089;28;51333;-52
2022/03/02 11:02:23;;;;;;;;;13.25;13.25;;;;;19.28;38.34;101601.50;5064992;28;51154;-50
2022/03/02 11:04:49;;;;;;;;;14.25;14.00;;;;;19.28;38.35;101598.75;5055964;28;51148;-50
2022/03/02 11:07:16;;;;;;;;;12.75;12.75;;;;;19.28;38.29;101598.75;5055835;28;52047;-54
2022/03/02 11:09:50;;;;;;;;;15.50;11.25;;;;;19.27;38.66;101599.78;5056871;28;51209;-49